Kimbolton, Ohio
Current Conditions -  °F | °C
As of 12:53 AM on Friday 31 Oct 2014 (Local Time) from KZZV Reporting Station
Overcast Overcast  
Wind Chill:   Ceiling: 4600
Heat Index:   Visibility: 10mi
Dew Point:   Wind: 0mph
Humidity: 76%   Direction: NA
Pressure: 30.03"   Gusts: NA
Location:  40.15°N, 81.57°W
Report Text: KZZV 310453Z AUTO 00000KT 10SM OVC046 06/02 A3003 RMK AO2 SLP172 T00610022 401061017
Loading
Personal Weather Stations






























Interactive Weather Map
Tropical Storm Tracking
New forecast layout! Learn more

10-Day Weather Forecast

Advertisements
Track Severe Weather on mobile